sensor_id;sensor_type;location;lat;lon;timestamp;temperature;humidity
51853;DHT22;37894;53.172;6.598;2023-02-25T00:02:10;4.60;99.90
51853;DHT22;37894;53.172;6.598;2023-02-25T00:09:29;5.70;99.90
51853;DHT22;37894;53.172;6.598;2023-02-25T00:11:55;5.20;99.90
51853;DHT22;37894;53.172;6.598;2023-02-25T00:16:48;4.80;99.90
51853;DHT22;37894;53.172;6.598;2023-02-25T00:19:14;4.70;99.90
51853;DHT22;37894;53.172;6.598;2023-02-25T00:24:06;4.60;99.90
51853;DHT22;37894;53.172;6.598;2023-02-25T00:26:32;3.90;99.90
51853;DHT22;37894;53.172;6.598;2023-02-25T00:31:24;4.60;99.90
51853;DHT22;37894;53.172;6.598;2023-02-25T00:33:50;5.10;99.90
51853;DHT22;37894;53.172;6.598;2023-02-25T00:36:21;4.80;99.90
51853;DHT22;37894;53.172;6.598;2023-02-25T00:38:53;4.50;99.90
51853;DHT22;37894;53.172;6.598;2023-02-25T00:41:24;4.60;99.90
51853;DHT22;37894;53.172;6.598;2023-02-25T00:44:01;5.50;99.90
51853;DHT22;37894;53.172;6.598;2023-02-25T00:46:31;3.90;99.90
51853;DHT22;37894;53.172;6.598;2023-02-25T00:48:57;4.60;99.90
51853;DHT22;37894;53.172;6.598;2023-02-25T00:51:26;4.50;99.90
51853;DHT22;37894;53.172;6.598;2023-02-25T00:53:53;4.70;99.90
51853;DHT22;37894;53.172;6.598;2023-02-25T00:56:20;3.80;99.90
51853;DHT22;37894;53.172;6.598;2023-02-25T00:58:48;3.80;99.90
51853;DHT22;37894;53.172;6.598;2023-02-25T01:01:29;4.70;99.90
51853;DHT22;37894;53.172;6.598;2023-02-25T01:03:56;4.20;99.90
51853;DHT22;37894;53.172;6.598;2023-02-25T01:06:23;4.40;99.90
51853;DHT22;37894;53.172;6.598;2023-02-25T01:08:49;4.40;99.90
51853;DHT22;37894;53.172;6.598;2023-02-25T01:11:22;4.50;99.90
51853;DHT22;37894;53.172;6.598;2023-02-25T01:13:52;3.60;99.90
51853;DHT22;37894;53.172;6.598;2023-02-25T01:16:20;4.30;99.90
51853;DHT22;37894;53.172;6.598;2023-02-25T01:18:46;5.00;99.90
51853;DHT22;37894;53.172;6.598;2023-02-25T01:21:17;4.00;99.90
51853;DHT22;37894;53.172;6.598;2023-02-25T01:23:47;4.40;99.90
51853;DHT22;37894;53.172;6.598;2023-02-25T01:26:14;5.00;99.90
51853;DHT22;37894;53.172;6.598;2023-02-25T01:28:40;3.80;99.90
51853;DHT22;37894;53.172;6.598;2023-02-25T01:31:06;4.10;99.90
51853;DHT22;37894;53.172;6.598;2023-02-25T01:33:34;4.00;99.90
51853;DHT22;37894;53.172;6.598;2023-02-25T01:36:04;3.60;99.90
51853;DHT22;37894;53.172;6.598;2023-02-25T01:38:31;4.20;99.90
51853;DHT22;37894;53.172;6.598;2023-02-25T01:40:57;4.00;99.90
51853;DHT22;37894;53.172;6.598;2023-02-25T01:43:23;4.40;99.90
51853;DHT22;37894;53.172;6.598;2023-02-25T01:48:21;4.30;99.90
51853;DHT22;37894;53.172;6.598;2023-02-25T01:51:07;4.50;99.90
51853;DHT22;37894;53.172;6.598;2023-02-25T01:53:37;4.30;99.90
51853;DHT22;37894;53.172;6.598;2023-02-25T01:56:05;4.30;99.90
51853;DHT22;37894;53.172;6.598;2023-02-25T01:58:32;4.10;99.90
51853;DHT22;37894;53.172;6.598;2023-02-25T02:00:59;4.30;99.90
51853;DHT22;37894;53.172;6.598;2023-02-25T02:03:31;4.40;99.90
51853;DHT22;37894;53.172;6.598;2023-02-25T02:08:29;4.20;99.90
51853;DHT22;37894;53.172;6.598;2023-02-25T02:13:23;3.40;99.90
51853;DHT22;37894;53.172;6.598;2023-02-25T02:18:41;4.10;99.90
51853;DHT22;37894;53.172;6.598;2023-02-25T02:25:19;4.20;99.90
51853;DHT22;37894;53.172;6.598;2023-02-25T02:44:23;4.10;99.90
51853;DHT22;37894;53.172;6.598;2023-02-25T02:47:05;4.40;99.90
51853;DHT22;37894;53.172;6.598;2023-02-25T02:49:43;4.10;99.90
51853;DHT22;37894;53.172;6.598;2023-02-25T02:52:17;4.40;99.90
51853;DHT22;37894;53.172;6.598;2023-02-25T02:54:51;3.70;99.90
51853;DHT22;37894;53.172;6.598;2023-02-25T02:57:20;5.30;99.90
51853;DHT22;37894;53.172;6.598;2023-02-25T02:59:51;4.10;99.90
51853;DHT22;37894;53.172;6.598;2023-02-25T03:02:33;4.20;99.90
51853;DHT22;37894;53.172;6.598;2023-02-25T03:05:04;4.40;99.90
51853;DHT22;37894;53.172;6.598;2023-02-25T03:07:32;4.50;99.90
51853;DHT22;37894;53.172;6.598;2023-02-25T03:10:03;4.40;99.90
51853;DHT22;37894;53.172;6.598;2023-02-25T03:12:31;4.40;99.90
51853;DHT22;37894;53.172;6.598;2023-02-25T03:17:26;4.30;99.90
51853;DHT22;37894;53.172;6.598;2023-02-25T03:22:24;4.00;99.90
51853;DHT22;37894;53.172;6.598;2023-02-25T03:25:13;3.90;99.90
51853;DHT22;37894;53.172;6.598;2023-02-25T03:27:41;4.50;99.90
51853;DHT22;37894;53.172;6.598;2023-02-25T03:30:16;3.70;99.90
51853;DHT22;37894;53.172;6.598;2023-02-25T03:32:46;4.30;99.90
51853;DHT22;37894;53.172;6.598;2023-02-25T03:35:16;4.40;99.90
51853;DHT22;37894;53.172;6.598;2023-02-25T03:37:46;4.10;99.90
51853;DHT22;37894;53.172;6.598;2023-02-25T03:40:13;4.80;99.90
51853;DHT22;37894;53.172;6.598;2023-02-25T03:42:57;3.30;99.90
51853;DHT22;37894;53.172;6.598;2023-02-25T03:45:26;4.30;99.90
51853;DHT22;37894;53.172;6.598;2023-02-25T03:47:51;4.30;99.90
51853;DHT22;37894;53.172;6.598;2023-02-25T03:50:26;4.30;99.90
51853;DHT22;37894;53.172;6.598;2023-02-25T03:52:53;4.40;99.90
51853;DHT22;37894;53.172;6.598;2023-02-25T03:57:48;4.20;99.90
51853;DHT22;37894;53.172;6.598;2023-02-25T04:00:25;4.20;99.90
51853;DHT22;37894;53.172;6.598;2023-02-25T04:02:51;4.10;99.90
51853;DHT22;37894;53.172;6.598;2023-02-25T04:05:19;3.60;99.90
51853;DHT22;37894;53.172;6.598;2023-02-25T04:07:45;4.00;99.90
51853;DHT22;37894;53.172;6.598;2023-02-25T04:10:13;3.10;99.90
51853;DHT22;37894;53.172;6.598;2023-02-25T04:12:39;4.20;99.90
51853;DHT22;37894;53.172;6.598;2023-02-25T04:15:06;4.20;99.90
51853;DHT22;37894;53.172;6.598;2023-02-25T04:17:32;3.50;99.90
51853;DHT22;37894;53.172;6.598;2023-02-25T04:22:24;3.80;99.90
51853;DHT22;37894;53.172;6.598;2023-02-25T04:24:50;3.80;99.90
51853;DHT22;37894;53.172;6.598;2023-02-25T04:27:16;3.70;99.90
51853;DHT22;37894;53.172;6.598;2023-02-25T04:29:42;3.70;99.90
51853;DHT22;37894;53.172;6.598;2023-02-25T04:34:34;3.70;99.90
51853;DHT22;37894;53.172;6.598;2023-02-25T04:39:30;3.80;99.90
51853;DHT22;37894;53.172;6.598;2023-02-25T04:41:56;3.80;99.90
51853;DHT22;37894;53.172;6.598;2023-02-25T04:44:22;3.40;99.90
51853;DHT22;37894;53.172;6.598;2023-02-25T04:46:48;3.00;99.90
51853;DHT22;37894;53.172;6.598;2023-02-25T04:49:18;3.70;99.90
51853;DHT22;37894;53.172;6.598;2023-02-25T04:51:45;3.80;99.90
51853;DHT22;37894;53.172;6.598;2023-02-25T04:54:11;4.30;99.90
51853;DHT22;37894;53.172;6.598;2023-02-25T04:56:37;4.00;99.90
51853;DHT22;37894;53.172;6.598;2023-02-25T04:59:04;3.70;99.90
51853;DHT22;37894;53.172;6.598;2023-02-25T05:03:58;3.80;99.90
51853;DHT22;37894;53.172;6.598;2023-02-25T05:06:26;3.90;99.90
51853;DHT22;37894;53.172;6.598;2023-02-25T05:08:52;3.80;99.90
51853;DHT22;37894;53.172;6.598;2023-02-25T05:11:19;4.00;99.90
51853;DHT22;37894;53.172;6.598;2023-02-25T05:13:45;4.20;99.90
51853;DHT22;37894;53.172;6.598;2023-02-25T05:16:14;3.90;99.90
51853;DHT22;37894;53.172;6.598;2023-02-25T05:18:42;3.80;99.90
51853;DHT22;37894;53.172;6.598;2023-02-25T05:21:09;4.80;99.90
51853;DHT22;37894;53.172;6.598;2023-02-25T05:23:38;3.80;99.90
51853;DHT22;37894;53.172;6.598;2023-02-25T05:26:04;3.70;99.90
51853;DHT22;37894;53.172;6.598;2023-02-25T05:28:30;4.00;99.90
51853;DHT22;37894;53.172;6.598;2023-02-25T05:30:56;3.40;99.90
51853;DHT22;37894;53.172;6.598;2023-02-25T05:33:22;4.50;99.90
51853;DHT22;37894;53.172;6.598;2023-02-25T05:35:49;5.10;99.90
51853;DHT22;37894;53.172;6.598;2023-02-25T05:38:15;3.80;99.90
51853;DHT22;37894;53.172;6.598;2023-02-25T05:40:41;4.30;99.90
51853;DHT22;37894;53.172;6.598;2023-02-25T05:43:06;4.10;99.90
51853;DHT22;37894;53.172;6.598;2023-02-25T05:45:34;3.90;99.90
51853;DHT22;37894;53.172;6.598;2023-02-25T05:48:00;3.30;99.90
51853;DHT22;37894;53.172;6.598;2023-02-25T05:50:25;4.20;99.90
51853;DHT22;37894;53.172;6.598;2023-02-25T05:52:53;4.10;99.90
51853;DHT22;37894;53.172;6.598;2023-02-25T05:55:18;3.60;99.90
51853;DHT22;37894;53.172;6.598;2023-02-25T05:57:44;4.10;99.90
51853;DHT22;37894;53.172;6.598;2023-02-25T06:00:10;4.20;99.90
51853;DHT22;37894;53.172;6.598;2023-02-25T06:02:40;4.00;99.90
51853;DHT22;37894;53.172;6.598;2023-02-25T06:05:07;3.70;99.90
51853;DHT22;37894;53.172;6.598;2023-02-25T06:07:33;4.00;99.90
51853;DHT22;37894;53.172;6.598;2023-02-25T06:09:59;3.90;99.90
51853;DHT22;37894;53.172;6.598;2023-02-25T06:12:30;4.90;99.90
51853;DHT22;37894;53.172;6.598;2023-02-25T06:14:57;3.70;99.90
51853;DHT22;37894;53.172;6.598;2023-02-25T06:17:22;3.40;99.90
51853;DHT22;37894;53.172;6.598;2023-02-25T06:19:52;3.10;99.90
51853;DHT22;37894;53.172;6.598;2023-02-25T06:22:18;3.70;99.90
51853;DHT22;37894;53.172;6.598;2023-02-25T06:24:44;3.80;99.90
51853;DHT22;37894;53.172;6.598;2023-02-25T06:27:10;2.80;99.90
51853;DHT22;37894;53.172;6.598;2023-02-25T06:29:36;3.90;99.90
51853;DHT22;37894;53.172;6.598;2023-02-25T06:32:07;3.50;99.90
51853;DHT22;37894;53.172;6.598;2023-02-25T06:34:33;3.50;99.90
51853;DHT22;37894;53.172;6.598;2023-02-25T06:41:52;2.20;99.90
51853;DHT22;37894;53.172;6.598;2023-02-25T06:44:17;3.10;99.90
51853;DHT22;37894;53.172;6.598;2023-02-25T06:49:09;4.10;99.90
51853;DHT22;37894;53.172;6.598;2023-02-25T06:51:35;3.20;99.90
51853;DHT22;37894;53.172;6.598;2023-02-25T06:54:02;3.20;99.90
51853;DHT22;37894;53.172;6.598;2023-02-25T06:56:29;3.20;99.90
51853;DHT22;37894;53.172;6.598;2023-02-25T06:58:55;3.30;99.90
51853;DHT22;37894;53.172;6.598;2023-02-25T07:01:24;3.00;99.90
51853;DHT22;37894;53.172;6.598;2023-02-25T07:06:16;3.30;99.90
51853;DHT22;37894;53.172;6.598;2023-02-25T07:08:43;3.20;99.90
51853;DHT22;37894;53.172;6.598;2023-02-25T07:13:36;3.50;99.90
51853;DHT22;37894;53.172;6.598;2023-02-25T07:16:02;2.50;99.90
51853;DHT22;37894;53.172;6.598;2023-02-25T07:18:28;3.40;99.90
51853;DHT22;37894;53.172;6.598;2023-02-25T07:20:53;3.30;99.90
51853;DHT22;37894;53.172;6.598;2023-02-25T07:23:21;3.10;99.90
51853;DHT22;37894;53.172;6.598;2023-02-25T07:25:47;2.40;99.90
51853;DHT22;37894;53.172;6.598;2023-02-25T07:28:12;2.80;99.90
51853;DHT22;37894;53.172;6.598;2023-02-25T07:30:38;2.60;99.90
51853;DHT22;37894;53.172;6.598;2023-02-25T07:35:30;3.40;99.90
51853;DHT22;37894;53.172;6.598;2023-02-25T07:37:57;3.90;99.90
51853;DHT22;37894;53.172;6.598;2023-02-25T07:40:22;3.30;99.90
51853;DHT22;37894;53.172;6.598;2023-02-25T07:45:15;3.60;99.90
51853;DHT22;37894;53.172;6.598;2023-02-25T07:47:41;3.80;99.90
51853;DHT22;37894;53.172;6.598;2023-02-25T07:50:08;3.60;99.90
51853;DHT22;37894;53.172;6.598;2023-02-25T07:52:34;3.80;99.90
51853;DHT22;37894;53.172;6.598;2023-02-25T07:55:02;3.60;99.90
51853;DHT22;37894;53.172;6.598;2023-02-25T07:57:28;4.80;99.90
51853;DHT22;37894;53.172;6.598;2023-02-25T07:59:54;3.70;99.90
51853;DHT22;37894;53.172;6.598;2023-02-25T08:02:20;4.00;99.90
51853;DHT22;37894;53.172;6.598;2023-02-25T08:09:38;3.80;99.90
51853;DHT22;37894;53.172;6.598;2023-02-25T08:12:06;4.30;99.90
51853;DHT22;37894;53.172;6.598;2023-02-25T08:14:32;4.10;99.90
51853;DHT22;37894;53.172;6.598;2023-02-25T08:16:57;4.60;99.90
51853;DHT22;37894;53.172;6.598;2023-02-25T08:24:20;5.60;99.90
51853;DHT22;37894;53.172;6.598;2023-02-25T08:26:47;4.30;99.90
51853;DHT22;37894;53.172;6.598;2023-02-25T08:29:13;4.30;99.90
51853;DHT22;37894;53.172;6.598;2023-02-25T08:31:39;4.80;99.90
51853;DHT22;37894;53.172;6.598;2023-02-25T08:34:05;4.30;99.90
51853;DHT22;37894;53.172;6.598;2023-02-25T08:38:58;3.80;99.90
51853;DHT22;37894;53.172;6.598;2023-02-25T08:41:26;5.50;99.90
51853;DHT22;37894;53.172;6.598;2023-02-25T08:43:53;4.70;99.90
51853;DHT22;37894;53.172;6.598;2023-02-25T08:46:24;4.80;99.90
51853;DHT22;37894;53.172;6.598;2023-02-25T08:48:51;4.80;99.90
51853;DHT22;37894;53.172;6.598;2023-02-25T08:51:18;4.80;99.90
51853;DHT22;37894;53.172;6.598;2023-02-25T08:53:44;5.20;99.90
51853;DHT22;37894;53.172;6.598;2023-02-25T08:56:12;5.40;99.90
51853;DHT22;37894;53.172;6.598;2023-02-25T08:58:39;5.40;99.90
51853;DHT22;37894;53.172;6.598;2023-02-25T09:01:06;6.20;99.90
51853;DHT22;37894;53.172;6.598;2023-02-25T09:03:41;5.50;99.90
51853;DHT22;37894;53.172;6.598;2023-02-25T09:06:26;5.40;99.90
51853;DHT22;37894;53.172;6.598;2023-02-25T09:08:54;5.40;99.90
51853;DHT22;37894;53.172;6.598;2023-02-25T09:11:21;5.30;99.90
51853;DHT22;37894;53.172;6.598;2023-02-25T09:13:47;4.20;99.90
51853;DHT22;37894;53.172;6.598;2023-02-25T09:16:13;4.80;99.90
51853;DHT22;37894;53.172;6.598;2023-02-25T09:18:46;5.00;99.90
51853;DHT22;37894;53.172;6.598;2023-02-25T09:21:13;5.10;99.90
51853;DHT22;37894;53.172;6.598;2023-02-25T09:23:39;4.20;99.90
51853;DHT22;37894;53.172;6.598;2023-02-25T09:26:06;5.00;99.90
51853;DHT22;37894;53.172;6.598;2023-02-25T09:28:32;5.00;99.90
51853;DHT22;37894;53.172;6.598;2023-02-25T09:30:58;5.20;99.90
51853;DHT22;37894;53.172;6.598;2023-02-25T09:33:24;5.00;99.90
51853;DHT22;37894;53.172;6.598;2023-02-25T09:35:50;5.60;99.90
51853;DHT22;37894;53.172;6.598;2023-02-25T09:38:17;4.80;99.90
51853;DHT22;37894;53.172;6.598;2023-02-25T09:40:47;4.80;99.90
51853;DHT22;37894;53.172;6.598;2023-02-25T09:43:38;5.00;99.90
51853;DHT22;37894;53.172;6.598;2023-02-25T09:46:11;5.30;99.90
51853;DHT22;37894;53.172;6.598;2023-02-25T09:48:51;5.00;99.90
51853;DHT22;37894;53.172;6.598;2023-02-25T09:53:58;5.40;99.90
51853;DHT22;37894;53.172;6.598;2023-02-25T09:56:26;5.10;99.90
51853;DHT22;37894;53.172;6.598;2023-02-25T09:58:57;5.50;99.90
51853;DHT22;37894;53.172;6.598;2023-02-25T10:06:46;5.30;99.90
51853;DHT22;37894;53.172;6.598;2023-02-25T10:24:04;5.30;99.90
51853;DHT22;37894;53.172;6.598;2023-02-25T10:26:38;5.40;99.90
51853;DHT22;37894;53.172;6.598;2023-02-25T10:29:11;5.40;99.90
51853;DHT22;37894;53.172;6.598;2023-02-25T10:31:38;5.20;99.90
51853;DHT22;37894;53.172;6.598;2023-02-25T10:34:33;4.80;99.90
51853;DHT22;37894;53.172;6.598;2023-02-25T10:37:04;5.40;99.90
51853;DHT22;37894;53.172;6.598;2023-02-25T10:39:35;4.70;99.90
51853;DHT22;37894;53.172;6.598;2023-02-25T10:42:01;5.30;99.90
51853;DHT22;37894;53.172;6.598;2023-02-25T10:44:27;5.50;99.90
51853;DHT22;37894;53.172;6.598;2023-02-25T10:47:03;5.60;99.90
51853;DHT22;37894;53.172;6.598;2023-02-25T10:49:31;5.50;99.90
51853;DHT22;37894;53.172;6.598;2023-02-25T10:52:18;5.40;99.90
51853;DHT22;37894;53.172;6.598;2023-02-25T10:54:47;5.70;99.90
51853;DHT22;37894;53.172;6.598;2023-02-25T10:57:15;5.40;99.90
51853;DHT22;37894;53.172;6.598;2023-02-25T10:59:44;5.60;99.90
51853;DHT22;37894;53.172;6.598;2023-02-25T11:04:45;5.90;99.90
51853;DHT22;37894;53.172;6.598;2023-02-25T11:07:32;5.60;99.90
51853;DHT22;37894;53.172;6.598;2023-02-25T11:10:19;6.00;99.90
51853;DHT22;37894;53.172;6.598;2023-02-25T11:12:49;5.70;99.90
51853;DHT22;37894;53.172;6.598;2023-02-25T11:17:46;5.80;99.90
51853;DHT22;37894;53.172;6.598;2023-02-25T11:20:25;5.90;99.90
51853;DHT22;37894;53.172;6.598;2023-02-25T11:22:53;7.20;99.90
51853;DHT22;37894;53.172;6.598;2023-02-25T11:25:31;6.80;99.90
51853;DHT22;37894;53.172;6.598;2023-02-25T11:27:58;7.00;99.90
51853;DHT22;37894;53.172;6.598;2023-02-25T11:30:31;7.60;99.90
51853;DHT22;37894;53.172;6.598;2023-02-25T11:32:59;7.70;99.90
51853;DHT22;37894;53.172;6.598;2023-02-25T11:35:35;7.50;99.90
51853;DHT22;37894;53.172;6.598;2023-02-25T11:38:15;7.20;99.80
51853;DHT22;37894;53.172;6.598;2023-02-25T11:40:43;7.00;99.90
51853;DHT22;37894;53.172;6.598;2023-02-25T11:43:39;7.30;99.90
51853;DHT22;37894;53.172;6.598;2023-02-25T11:46:18;8.10;99.30
51853;DHT22;37894;53.172;6.598;2023-02-25T11:51:41;8.40;98.10
51853;DHT22;37894;53.172;6.598;2023-02-25T11:54:42;8.40;96.70
51853;DHT22;37894;53.172;6.598;2023-02-25T11:58:09;8.80;97.70
51853;DHT22;37894;53.172;6.598;2023-02-25T12:00:22;9.20;98.10
51853;DHT22;37894;53.172;6.598;2023-02-25T12:05:42;9.10;92.10
51853;DHT22;37894;53.172;6.598;2023-02-25T12:39:14;7.50;93.70
51853;DHT22;37894;53.172;6.598;2023-02-25T12:44:37;6.80;94.40
51853;DHT22;37894;53.172;6.598;2023-02-25T12:50:13;6.60;94.30
51853;DHT22;37894;53.172;6.598;2023-02-25T12:55:25;5.90;96.30
51853;DHT22;37894;53.172;6.598;2023-02-25T13:00:47;6.40;98.50
51853;DHT22;37894;53.172;6.598;2023-02-25T13:03:58;6.60;98.70
51853;DHT22;37894;53.172;6.598;2023-02-25T13:17:23;6.10;95.50
51853;DHT22;37894;53.172;6.598;2023-02-25T13:22:58;6.10;96.00
51853;DHT22;37894;53.172;6.598;2023-02-25T13:25:45;6.10;99.80
51853;DHT22;37894;53.172;6.598;2023-02-25T13:31:08;6.20;98.40
51853;DHT22;37894;53.172;6.598;2023-02-25T13:39:51;6.00;99.60
51853;DHT22;37894;53.172;6.598;2023-02-25T13:58:01;5.80;99.20
51853;DHT22;37894;53.172;6.598;2023-02-25T14:11:32;5.70;94.70
51853;DHT22;37894;53.172;6.598;2023-02-25T14:22:59;5.60;95.70
51853;DHT22;37894;53.172;6.598;2023-02-25T14:28:36;5.50;96.80
51853;DHT22;37894;53.172;6.598;2023-02-25T14:31:43;4.80;97.80
51853;DHT22;37894;53.172;6.598;2023-02-25T14:40:05;5.50;97.20
51853;DHT22;37894;53.172;6.598;2023-02-25T14:48:03;4.80;97.70
51853;DHT22;37894;53.172;6.598;2023-02-25T14:50:39;5.60;96.80
51853;DHT22;37894;53.172;6.598;2023-02-25T14:53:17;6.60;96.50
51853;DHT22;37894;53.172;6.598;2023-02-25T14:59:13;5.50;96.60
51853;DHT22;37894;53.172;6.598;2023-02-25T15:04:30;5.60;99.90
51853;DHT22;37894;53.172;6.598;2023-02-25T15:13:07;5.40;99.90
51853;DHT22;37894;53.172;6.598;2023-02-25T15:18:33;5.00;99.90
51853;DHT22;37894;53.172;6.598;2023-02-25T15:21:31;5.40;99.90
51853;DHT22;37894;53.172;6.598;2023-02-25T15:23:59;5.20;99.90
51853;DHT22;37894;53.172;6.598;2023-02-25T15:31:31;5.50;97.60
51853;DHT22;37894;53.172;6.598;2023-02-25T15:36:46;5.40;98.10
51853;DHT22;37894;53.172;6.598;2023-02-25T15:42:05;5.50;99.90
51853;DHT22;37894;53.172;6.598;2023-02-25T15:44:34;5.30;99.90
51853;DHT22;37894;53.172;6.598;2023-02-25T15:47:21;5.10;98.00
51853;DHT22;37894;53.172;6.598;2023-02-25T15:49:48;5.20;98.20
51853;DHT22;37894;53.172;6.598;2023-02-25T15:52:50;5.20;98.10
51853;DHT22;37894;53.172;6.598;2023-02-25T15:57:56;5.20;99.90
51853;DHT22;37894;53.172;6.598;2023-02-25T16:00:54;5.80;99.90
51853;DHT22;37894;53.172;6.598;2023-02-25T16:06:04;4.40;99.90
51853;DHT22;37894;53.172;6.598;2023-02-25T16:11:45;5.10;99.90
51853;DHT22;37894;53.172;6.598;2023-02-25T16:14:33;5.10;99.90
51853;DHT22;37894;53.172;6.598;2023-02-25T16:17:27;5.00;99.90
51853;DHT22;37894;53.172;6.598;2023-02-25T16:19:55;5.00;99.90
51853;DHT22;37894;53.172;6.598;2023-02-25T16:22:23;4.90;99.90
51853;DHT22;37894;53.172;6.598;2023-02-25T16:24:57;4.00;99.90
51853;DHT22;37894;53.172;6.598;2023-02-25T16:27:58;4.60;99.90
51853;DHT22;37894;53.172;6.598;2023-02-25T16:30:42;4.50;99.90
51853;DHT22;37894;53.172;6.598;2023-02-25T16:33:29;4.70;99.90
51853;DHT22;37894;53.172;6.598;2023-02-25T16:36:15;5.70;99.90
51853;DHT22;37894;53.172;6.598;2023-02-25T16:39:06;4.50;99.90
51853;DHT22;37894;53.172;6.598;2023-02-25T16:41:35;4.40;99.90
51853;DHT22;37894;53.172;6.598;2023-02-25T16:44:02;4.30;99.90
51853;DHT22;37894;53.172;6.598;2023-02-25T16:46:31;4.20;99.90
51853;DHT22;37894;53.172;6.598;2023-02-25T16:48:59;4.10;99.90
51853;DHT22;37894;53.172;6.598;2023-02-25T16:51:36;5.10;99.90
51853;DHT22;37894;53.172;6.598;2023-02-25T16:54:16;4.20;99.90
51853;DHT22;37894;53.172;6.598;2023-02-25T16:56:45;4.50;99.90
51853;DHT22;37894;53.172;6.598;2023-02-25T16:59:18;4.10;99.90
51853;DHT22;37894;53.172;6.598;2023-02-25T17:04:46;3.70;99.90
51853;DHT22;37894;53.172;6.598;2023-02-25T17:07:23;3.80;99.90
51853;DHT22;37894;53.172;6.598;2023-02-25T17:09:53;4.40;99.90
51853;DHT22;37894;53.172;6.598;2023-02-25T17:12:36;4.60;99.90
51853;DHT22;37894;53.172;6.598;2023-02-25T17:15:06;3.60;99.90
51853;DHT22;37894;53.172;6.598;2023-02-25T17:17:39;3.50;99.90
51853;DHT22;37894;53.172;6.598;2023-02-25T17:20:18;3.30;99.90
51853;DHT22;37894;53.172;6.598;2023-02-25T17:22:49;3.50;99.90
51853;DHT22;37894;53.172;6.598;2023-02-25T17:25:16;3.70;99.90
51853;DHT22;37894;53.172;6.598;2023-02-25T17:27:44;3.50;99.90
51853;DHT22;37894;53.172;6.598;2023-02-25T17:30:37;3.20;99.90
51853;DHT22;37894;53.172;6.598;2023-02-25T17:33:04;3.30;99.90
51853;DHT22;37894;53.172;6.598;2023-02-25T17:35:30;3.40;99.90
51853;DHT22;37894;53.172;6.598;2023-02-25T17:37:57;3.40;99.90
51853;DHT22;37894;53.172;6.598;2023-02-25T17:40:27;3.40;99.90
51853;DHT22;37894;53.172;6.598;2023-02-25T17:45:39;3.30;99.90
51853;DHT22;37894;53.172;6.598;2023-02-25T17:48:11;2.60;99.90
51853;DHT22;37894;53.172;6.598;2023-02-25T17:50:38;3.30;99.90
51853;DHT22;37894;53.172;6.598;2023-02-25T17:53:04;3.20;99.90
51853;DHT22;37894;53.172;6.598;2023-02-25T17:55:33;3.30;99.90
51853;DHT22;37894;53.172;6.598;2023-02-25T17:58:00;3.00;99.90
51853;DHT22;37894;53.172;6.598;2023-02-25T18:00:29;3.20;99.90
51853;DHT22;37894;53.172;6.598;2023-02-25T18:03:17;3.20;99.90
51853;DHT22;37894;53.172;6.598;2023-02-25T18:05:53;3.20;99.90
51853;DHT22;37894;53.172;6.598;2023-02-25T18:08:27;2.40;99.90
51853;DHT22;37894;53.172;6.598;2023-02-25T18:11:35;3.30;99.90
51853;DHT22;37894;53.172;6.598;2023-02-25T18:14:24;3.50;99.90
51853;DHT22;37894;53.172;6.598;2023-02-25T18:16:47;3.20;99.90
51853;DHT22;37894;53.172;6.598;2023-02-25T18:19:37;3.00;99.90
51853;DHT22;37894;53.172;6.598;2023-02-25T18:22:06;3.40;99.90
51853;DHT22;37894;53.172;6.598;2023-02-25T18:24:35;3.10;99.90
51853;DHT22;37894;53.172;6.598;2023-02-25T18:27:28;3.10;99.90
51853;DHT22;37894;53.172;6.598;2023-02-25T18:30:14;3.30;99.90
51853;DHT22;37894;53.172;6.598;2023-02-25T18:32:40;3.60;99.90
51853;DHT22;37894;53.172;6.598;2023-02-25T18:35:06;2.40;99.90
51853;DHT22;37894;53.172;6.598;2023-02-25T18:37:32;2.90;99.90
51853;DHT22;37894;53.172;6.598;2023-02-25T18:39:59;3.40;99.90
51853;DHT22;37894;53.172;6.598;2023-02-25T18:44:50;2.70;99.90
51853;DHT22;37894;53.172;6.598;2023-02-25T18:47:16;2.80;99.90
51853;DHT22;37894;53.172;6.598;2023-02-25T18:49:43;3.90;99.90
51853;DHT22;37894;53.172;6.598;2023-02-25T18:52:18;3.50;99.90
51853;DHT22;37894;53.172;6.598;2023-02-25T18:54:44;2.70;99.90
51853;DHT22;37894;53.172;6.598;2023-02-25T18:57:22;2.70;99.90
51853;DHT22;37894;53.172;6.598;2023-02-25T18:59:50;2.40;99.90
51853;DHT22;37894;53.172;6.598;2023-02-25T19:02:33;2.60;99.90
51853;DHT22;37894;53.172;6.598;2023-02-25T19:05:00;2.70;99.90
51853;DHT22;37894;53.172;6.598;2023-02-25T19:07:29;2.30;99.90
51853;DHT22;37894;53.172;6.598;2023-02-25T19:12:24;2.60;99.90
51853;DHT22;37894;53.172;6.598;2023-02-25T19:14:58;3.10;99.90
51853;DHT22;37894;53.172;6.598;2023-02-25T19:17:25;3.30;99.90
51853;DHT22;37894;53.172;6.598;2023-02-25T19:19:51;2.70;99.90
51853;DHT22;37894;53.172;6.598;2023-02-25T19:24:44;2.20;99.90
51853;DHT22;37894;53.172;6.598;2023-02-25T19:27:28;2.60;99.90
51853;DHT22;37894;53.172;6.598;2023-02-25T19:29:56;2.00;99.90
51853;DHT22;37894;53.172;6.598;2023-02-25T19:32:23;2.30;99.90
51853;DHT22;37894;53.172;6.598;2023-02-25T19:37:17;3.60;99.90
51853;DHT22;37894;53.172;6.598;2023-02-25T19:39:43;2.10;99.90
51853;DHT22;37894;53.172;6.598;2023-02-25T19:42:10;2.50;99.90
51853;DHT22;37894;53.172;6.598;2023-02-25T19:47:03;2.60;99.90
51853;DHT22;37894;53.172;6.598;2023-02-25T19:49:29;2.60;99.90
51853;DHT22;37894;53.172;6.598;2023-02-25T19:51:55;2.60;99.90
51853;DHT22;37894;53.172;6.598;2023-02-25T19:54:21;2.40;99.90
51853;DHT22;37894;53.172;6.598;2023-02-25T19:59:14;2.80;99.90
51853;DHT22;37894;53.172;6.598;2023-02-25T20:01:41;2.70;99.90
51853;DHT22;37894;53.172;6.598;2023-02-25T20:04:09;2.80;99.90
51853;DHT22;37894;53.172;6.598;2023-02-25T20:06:37;2.80;99.90
51853;DHT22;37894;53.172;6.598;2023-02-25T20:09:06;2.20;99.90
51853;DHT22;37894;53.172;6.598;2023-02-25T20:14:00;2.50;99.90
51853;DHT22;37894;53.172;6.598;2023-02-25T20:26:16;2.90;99.90
51853;DHT22;37894;53.172;6.598;2023-02-25T20:28:45;2.80;99.90
51853;DHT22;37894;53.172;6.598;2023-02-25T20:31:13;2.70;99.90
51853;DHT22;37894;53.172;6.598;2023-02-25T20:33:40;2.70;99.90
51853;DHT22;37894;53.172;6.598;2023-02-25T20:36:22;3.00;99.90
51853;DHT22;37894;53.172;6.598;2023-02-25T20:41:42;2.60;99.90
51853;DHT22;37894;53.172;6.598;2023-02-25T20:44:08;2.80;99.90
51853;DHT22;37894;53.172;6.598;2023-02-25T20:46:35;1.90;99.90
51853;DHT22;37894;53.172;6.598;2023-02-25T20:49:02;2.90;99.90
51853;DHT22;37894;53.172;6.598;2023-02-25T20:51:28;2.80;99.90
51853;DHT22;37894;53.172;6.598;2023-02-25T20:53:54;2.70;99.90
51853;DHT22;37894;53.172;6.598;2023-02-25T20:56:22;3.00;99.90
51853;DHT22;37894;53.172;6.598;2023-02-25T20:58:48;3.10;99.90
51853;DHT22;37894;53.172;6.598;2023-02-25T21:06:08;2.70;99.90
51853;DHT22;37894;53.172;6.598;2023-02-25T21:08:34;2.60;99.90
51853;DHT22;37894;53.172;6.598;2023-02-25T21:11:00;2.90;99.90
51853;DHT22;37894;53.172;6.598;2023-02-25T21:13:26;2.90;99.90
51853;DHT22;37894;53.172;6.598;2023-02-25T21:15:57;2.80;99.90
51853;DHT22;37894;53.172;6.598;2023-02-25T21:18:23;2.80;99.90
51853;DHT22;37894;53.172;6.598;2023-02-25T21:21:02;2.70;99.90